Time;durP1;ratioP1;P1;durP2;ratioP2;P2;SDS_P1;SDS_P2;PMS_P1;PMS_P2;Temp;Humidity;BMP_temperature;BMP_pressure;BME280_temperature;BME280_humidity;BME280_pressure;Samples;Min_cycle;Max_cycle;Signal;HPM_P1;HPM_P2
2023/08/12 00:02:40;;;;;;;15.23;3.97;;;;;;;24.94;66.35;99893.72;10494723;28;20048;-71
2023/08/12 00:07:41;;;;;;;15.20;3.97;;;;;;;24.97;66.65;99921.16;10495068;28;20041;-70
2023/08/12 00:12:43;;;;;;;10.02;3.95;;;;;;;24.85;67.19;99911.66;10495362;28;20397;-71
2023/08/12 00:17:43;;;;;;;15.25;4.10;;;;;;;24.77;67.26;99899.47;10495407;28;20043;-71
2023/08/12 00:22:44;;;;;;;10.18;3.80;;;;;;;24.90;66.87;99898.91;10494730;28;20039;-75
2023/08/12 00:27:45;;;;;;;11.60;4.40;;;;;;;24.10;66.95;99785.41;10494861;28;20048;-71
2023/08/12 00:32:46;;;;;;;6.75;3.97;;;;;;;24.89;67.38;99923.59;10494413;28;20480;-71
2023/08/12 00:37:46;;;;;;;9.32;4.22;;;;;;;24.60;68.28;99881.53;10500217;28;20503;-71
2023/08/12 00:42:47;;;;;;;10.45;4.22;;;;;;;24.31;68.40;99847.84;10501707;28;20043;-71
2023/08/12 00:47:48;;;;;;;11.88;4.30;;;;;;;24.68;68.59;99926.34;10500298;28;20028;-71
2023/08/12 00:52:50;;;;;;;14.30;4.38;;;;;;;24.62;69.21;99935.59;10501159;28;20055;-70
2023/08/12 00:57:50;;;;;;;8.07;4.10;;;;;;;24.49;69.24;99920.63;10501018;28;20045;-70
2023/08/12 01:02:53;;;;;;;13.52;4.10;;;;;;;24.04;69.87;99886.88;10501039;28;20040;-71
2023/08/12 01:07:54;;;;;;;11.27;4.20;;;;;;;23.99;70.35;99888.75;10501134;28;20045;-71
2023/08/12 01:13:32;;;;;;;8.90;4.28;;;;;;;24.07;73.80;99915.38;10500828;28;20060;-70
2023/08/12 01:18:33;;;;;;;11.18;4.38;;;;;;;24.41;72.17;99989.03;10500325;28;20408;-71
2023/08/12 01:23:34;;;;;;;10.05;4.47;;;;;;;24.09;71.97;99941.16;10499351;28;20036;-71
2023/08/12 01:28:35;;;;;;;9.27;4.82;;;;;;;24.36;72.36;99989.00;10500564;28;20404;-71
2023/08/12 01:33:58;;;;;;;38.95;6.82;;;;;;;24.51;75.28;100018.94;10498436;28;20067;-71
2023/08/12 01:38:59;;;;;;;;;;;;;;;24.60;71.59;100017.31;10500012;28;20189;-71
2023/08/12 01:44:00;;;;;;;53.08;7.18;;;;;;;24.34;72.34;99991.16;10498701;28;19916;-71
2023/08/12 01:49:01;;;;;;;29.40;6.43;;;;;;;24.34;72.89;99980.31;10499640;28;20041;-74
2023/08/12 01:54:02;;;;;;;14.57;4.82;;;;;;;23.96;73.24;99944.41;10499401;28;20044;-71
2023/08/12 01:59:02;;;;;;;13.43;4.55;;;;;;;24.49;73.85;100034.66;10497825;28;20534;-71
2023/08/12 02:04:03;;;;;;;21.33;5.25;;;;;;;24.11;74.18;99968.84;10498390;28;20142;-70
2023/08/12 02:09:04;;;;;;;50.13;7.40;;;;;;;24.20;74.15;99976.47;10497658;28;20058;-71
2023/08/12 02:14:05;;;;;;;15.93;5.18;;;;;;;24.64;74.86;100062.94;10497860;28;20410;-71
2023/08/12 02:19:06;;;;;;;35.28;6.57;;;;;;;24.44;75.09;100034.69;10498351;28;20076;-71
2023/08/12 02:24:08;;;;;;;13.18;5.00;;;;;;;24.74;75.26;100052.09;10498169;28;20075;-71
2023/08/12 02:29:08;;;;;;;28.85;6.07;;;;;;;24.88;75.72;100047.78;10497507;28;20044;-71
2023/08/12 02:34:09;;;;;;;9.68;4.85;;;;;;;25.03;74.98;100055.94;10497703;28;20157;-70
2023/08/12 02:39:10;;;;;;;12.85;5.50;;;;;;;24.68;75.58;99972.53;10497624;28;20048;-70
2023/08/12 02:44:11;;;;;;;28.88;5.43;;;;;;;25.25;75.17;100044.03;10496874;28;20040;-70
2023/08/12 02:49:12;;;;;;;15.40;4.95;;;;;;;25.48;74.20;100050.78;10496196;28;20041;-70
2023/08/12 02:54:12;;;;;;;18.17;5.03;;;;;;;25.66;73.52;100046.69;10496879;28;20041;-71
2023/08/12 02:59:13;;;;;;;61.47;6.53;;;;;;;25.90;72.84;100036.84;10496096;28;20455;-71
2023/08/12 03:04:14;;;;;;;11.63;4.40;;;;;;;26.32;70.70;100053.84;10495669;28;20040;-71
2023/08/12 03:09:14;;;;;;;19.80;4.80;;;;;;;26.46;69.26;99994.94;10495487;28;20071;-71
2023/08/12 03:14:15;;;;;;;11.85;4.65;;;;;;;27.14;66.83;99999.66;10495714;28;20075;-73
2023/08/12 03:19:16;;;;;;;21.73;4.90;;;;;;;27.71;64.37;99986.28;10495456;28;20101;-71
2023/08/12 03:24:16;;;;;;;16.88;5.05;;;;;;;28.12;62.99;99997.53;10495971;28;20063;-70
2023/08/12 03:29:17;;;;;;;44.55;7.68;;;;;;;28.15;63.16;99986.03;10495973;28;20449;-70
2023/08/12 03:34:18;;;;;;;23.67;5.30;;;;;;;28.05;63.00;100051.69;10495576;28;20047;-71
2023/08/12 03:39:18;;;;;;;35.70;5.60;;;;;;;27.68;63.43;100046.91;10495444;28;20036;-71
2023/08/12 03:44:19;;;;;;;16.63;5.30;;;;;;;27.64;63.36;100035.75;10495464;28;20051;-71
2023/08/12 03:49:20;;;;;;;27.40;5.00;;;;;;;27.69;63.19;100026.69;10494940;28;20424;-71
2023/08/12 03:54:20;;;;;;;13.77;4.40;;;;;;;28.17;62.68;100060.25;10495292;28;20036;-71
2023/08/12 03:59:22;;;;;;;25.58;4.82;;;;;;;28.72;61.44;100053.56;10495402;28;20123;-71
2023/08/12 04:04:23;;;;;;;13.90;3.95;;;;;;;29.33;59.50;100042.47;10495183;28;20037;-70
2023/08/12 04:09:24;;;;;;;11.50;3.88;;;;;;;29.93;58.23;100058.09;10496208;28;20058;-71
2023/08/12 04:14:25;;;;;;;12.55;4.60;;;;;;;29.11;58.81;100021.25;10502743;28;20055;-70
2023/08/12 04:19:26;;;;;;;12.90;4.53;;;;;;;28.79;59.53;100054.81;10502907;28;20044;-70
2023/08/12 04:24:26;;;;;;;11.73;5.00;;;;;;;28.61;60.13;100061.91;10502318;28;20036;-71
2023/08/12 04:29:27;;;;;;;14.20;4.07;;;;;;;28.81;60.70;100098.28;10502103;28;20503;-70
2023/08/12 04:34:28;;;;;;;15.30;5.00;;;;;;;28.29;61.28;100018.06;10501354;28;20507;-71
2023/08/12 04:39:29;;;;;;;9.77;4.18;;;;;;;28.52;62.36;100082.81;10502210;28;20068;-70
2023/08/12 04:44:29;;;;;;;10.45;4.68;;;;;;;28.36;62.68;100071.25;10501523;28;20492;-71
2023/08/12 04:49:30;;;;;;;8.15;3.80;;;;;;;28.43;62.48;100082.66;10500034;28;20044;-70
2023/08/12 04:54:31;;;;;;;13.65;4.50;;;;;;;28.42;63.03;100094.69;10499718;28;20047;-71
2023/08/12 04:59:31;;;;;;;10.00;4.50;;;;;;;28.37;62.66;100058.41;10501190;28;20496;-74
2023/08/12 05:04:32;;;;;;;8.93;4.05;;;;;;;28.48;62.83;100053.63;10500637;28;20044;-70
2023/08/12 05:09:33;;;;;;;18.08;4.95;;;;;;;29.17;61.91;100105.94;10500657;28;20053;-71
2023/08/12 05:14:33;;;;;;;11.23;4.22;;;;;;;29.37;61.15;100111.09;10500502;28;20041;-71
2023/08/12 05:19:34;;;;;;;7.78;3.65;;;;;;;29.83;60.01;100115.00;10500294;28;20475;-72
2023/08/12 05:24:35;;;;;;;9.27;4.25;;;;;;;30.19;57.92;100115.13;10499303;28;20064;-71
2023/08/12 05:29:36;;;;;;;14.73;4.25;;;;;;;30.27;57.02;100089.75;10499702;28;20041;-70
2023/08/12 05:34:36;;;;;;;10.30;4.90;;;;;;;31.04;55.94;100132.78;10499574;28;20050;-70
2023/08/12 05:39:37;;;;;;;10.82;4.22;;;;;;;31.10;55.54;100119.78;10499443;28;20043;-70
2023/08/12 05:44:40;;;;;;;8.57;4.60;;;;;;;31.19;54.72;100125.31;10499569;28;20044;-71
2023/08/12 05:49:42;;;;;;;9.15;3.72;;;;;;;31.51;53.48;100138.03;10498994;28;20044;-70
2023/08/12 05:54:43;;;;;;;15.27;3.80;;;;;;;31.62;52.96;100117.44;10498149;28;20067;-70
2023/08/12 05:59:43;;;;;;;10.13;3.70;;;;;;;31.71;52.52;100137.50;10498095;28;20067;-71
2023/08/12 06:04:44;;;;;;;7.57;3.97;;;;;;;31.62;52.00;100098.22;10498642;28;20067;-70
2023/08/12 06:09:45;;;;;;;16.40;3.97;;;;;;;31.37;52.31;100075.75;10497720;28;20056;-70
2023/08/12 06:14:45;;;;;;;26.63;4.00;;;;;;;31.44;51.59;100101.94;10497759;28;20090;-70
2023/08/12 06:19:46;;;;;;;11.65;4.03;;;;;;;31.47;50.62;100109.56;10497805;28;20086;-71
2023/08/12 06:24:47;;;;;;;22.27;7.47;;;;;;;31.50;50.80;100084.22;10497143;28;20067;-75
2023/08/12 06:29:47;;;;;;;11.55;3.70;;;;;;;31.63;50.28;100088.84;10496928;28;20047;-70
2023/08/12 06:34:48;;;;;;;13.88;4.18;;;;;;;31.84;49.72;100166.81;10496475;28;20488;-70
2023/08/12 06:39:49;;;;;;;14.50;4.00;;;;;;;31.81;49.93;100104.25;10495476;28;20423;-70
2023/08/12 06:44:57;;;;;;;10.20;4.10;;;;;;;32.27;48.64;100140.69;10496752;28;20102;-70
2023/08/12 06:49:58;;;;;;;15.32;4.55;;;;;;;31.83;49.37;100044.34;10497166;28;20040;-71
2023/08/12 06:54:58;;;;;;;12.32;4.07;;;;;;;32.15;48.91;100108.31;10496456;28;20040;-70
2023/08/12 06:59:59;;;;;;;19.88;4.47;;;;;;;32.44;48.25;100142.69;10496597;28;20041;-70
2023/08/12 07:05:00;;;;;;;17.08;4.40;;;;;;;32.88;48.15;100122.41;10495884;28;20063;-70
2023/08/12 07:10:01;;;;;;;14.05;3.90;;;;;;;32.98;47.13;100066.25;10496651;28;20052;-73
2023/08/12 07:15:02;;;;;;;24.88;4.95;;;;;;;33.46;46.63;100134.03;10496230;28;20052;-70
2023/08/12 07:20:04;;;;;;;17.02;4.30;;;;;;;33.33;46.33;100124.84;10496016;28;20510;-70
2023/08/12 07:25:05;;;;;;;16.35;4.07;;;;;;;33.26;46.08;100098.94;10496007;28;20044;-70
2023/08/12 07:30:07;;;;;;;15.68;4.40;;;;;;;32.95;45.61;100075.13;10495093;28;20412;-72
2023/08/12 07:35:08;;;;;;;12.32;3.95;;;;;;;33.47;45.70;100135.66;10495544;28;20037;-71
2023/08/12 07:40:09;;;;;;;14.63;4.15;;;;;;;33.89;45.06;100148.88;10495656;28;20457;-71
2023/08/12 07:45:10;;;;;;;13.38;4.57;;;;;;;34.09;44.82;100151.72;10500056;28;20060;-71
2023/08/12 07:50:11;;;;;;;14.60;3.75;;;;;;;33.96;43.85;100138.97;10503682;28;20064;-71
2023/08/12 07:55:12;;;;;;;10.98;3.90;;;;;;;33.95;43.63;100129.06;10504325;28;20056;-70
2023/08/12 08:00:13;;;;;;;9.52;3.75;;;;;;;34.03;43.92;100127.44;10503381;28;20044;-71
2023/08/12 08:05:14;;;;;;;10.60;3.58;;;;;;;34.24;43.59;100122.00;10503821;28;20462;-70
2023/08/12 08:10:14;;;;;;;15.32;3.85;;;;;;;34.18;43.17;100106.78;10503018;28;20142;-71
2023/08/12 08:15:15;;;;;;;15.70;3.67;;;;;;;34.49;43.50;100128.50;10503191;28;20041;-70
2023/08/12 08:20:16;;;;;;;7.80;3.40;;;;;;;34.82;43.37;100131.38;10503129;28;20083;-70
2023/08/12 08:25:17;;;;;;;22.63;4.75;;;;;;;34.66;42.24;100116.59;10502888;28;20051;-70
2023/08/12 08:30:18;;;;;;;20.48;4.22;;;;;;;34.85;42.61;100133.50;10501938;28;20040;-70
2023/08/12 08:35:18;;;;;;;11.32;3.40;;;;;;;34.74;41.99;100133.06;10502760;28;20047;-75
2023/08/12 08:40:19;;;;;;;15.18;3.63;;;;;;;34.49;42.35;100065.91;10500153;28;20047;-71
2023/08/12 08:45:23;;;;;;;11.02;3.95;;;;;;;35.04;42.12;100107.38;10501694;28;20048;-71
2023/08/12 08:50:24;;;;;;;11.23;3.75;;;;;;;35.18;41.68;100127.22;10501443;28;20040;-71
2023/08/12 08:55:25;;;;;;;11.55;3.33;;;;;;;34.83;40.71;100077.81;10499729;28;20045;-70
2023/08/12 09:00:28;;;;;;;7.63;3.30;;;;;;;35.16;40.58;100105.47;10501601;28;20123;-71
2023/08/12 09:05:30;;;;;;;18.52;3.90;;;;;;;35.20;40.81;100103.66;10500358;28;20047;-71
2023/08/12 09:10:31;;;;;;;9.25;3.60;;;;;;;35.31;40.42;100114.28;10500681;28;20056;-71
2023/08/12 09:15:32;;;;;;;11.83;3.60;;;;;;;34.88;40.25;100039.00;10500663;28;20048;-71
2023/08/12 09:20:34;;;;;;;49.58;5.45;;;;;;;35.44;41.86;100118.69;10501154;28;20037;-73
2023/08/12 09:25:35;;;;;;;16.63;3.53;;;;;;;35.59;40.77;100114.50;10501031;28;20087;-71
2023/08/12 09:30:36;;;;;;;82.97;7.38;;;;;;;35.88;40.92;100116.28;10499784;28;20506;-71
2023/08/12 09:35:38;;;;;;;48.63;5.73;;;;;;;35.92;40.46;100105.34;10499218;28;20066;-70
2023/08/12 09:40:39;;;;;;;9.90;3.67;;;;;;;35.97;40.04;100118.94;10499593;28;20052;-71
2023/08/12 09:45:40;;;;;;;13.43;3.77;;;;;;;35.59;40.50;100089.63;10499696;28;20072;-71
2023/08/12 09:50:41;;;;;;;14.45;3.53;;;;;;;35.43;40.92;100104.06;10499031;28;20064;-71
2023/08/12 09:55:43;;;;;;;23.55;3.67;;;;;;;35.44;41.53;100096.59;10498752;28;20032;-71
2023/08/12 10:00:45;;;;;;;11.02;3.58;;;;;;;35.57;41.45;100042.19;10498197;28;20040;-71
2023/08/12 10:05:46;;;;;;;10.05;3.22;;;;;;;35.84;41.01;100085.75;10498254;28;20040;-70
2023/08/12 10:10:46;;;;;;;20.27;3.60;;;;;;;35.76;41.44;100086.66;10498302;28;20056;-71
2023/08/12 10:15:49;;;;;;;14.07;3.50;;;;;;;35.85;40.76;100050.63;10497485;28;20040;-71
2023/08/12 10:20:51;;;;;;;12.40;3.60;;;;;;;35.53;40.76;100066.13;10497917;28;20508;-71
2023/08/12 10:25:54;;;;;;;5.43;3.40;;;;;;;35.01;42.26;100064.69;10497764;28;20037;-72
2023/08/12 10:30:56;;;;;;;9.50;3.53;;;;;;;34.33;42.79;100017.97;10497527;28;20072;-71
2023/08/12 10:35:57;;;;;;;11.70;3.20;;;;;;;34.22;43.25;100055.34;10497293;28;20040;-71
2023/08/12 10:41:16;;;;;;;7.55;3.50;;;;;;;34.08;44.16;100074.91;10497070;28;20045;-70
2023/08/12 10:46:23;;;;;;;18.23;4.03;;;;;;;33.68;44.46;100066.94;10496327;28;20037;-71
2023/08/12 10:51:47;;;;;;;14.00;3.42;;;;;;;33.47;44.64;100077.03;10497289;28;20134;-71
2023/08/12 10:57:08;;;;;;;11.50;3.55;;;;;;;32.83;44.51;100009.75;10496577;28;20041;-71
2023/08/12 11:02:21;;;;;;;14.02;3.45;;;;;;;32.84;45.53;100030.63;10495864;28;20041;-71
2023/08/12 11:07:34;;;;;;;7.07;3.63;;;;;;;32.74;45.65;100045.53;10496366;28;20417;-70
2023/08/12 11:12:35;;;;;;;8.48;3.55;;;;;;;32.33;45.92;100012.97;10496588;28;20068;-71
2023/08/12 11:17:41;;;;;;;11.70;3.50;;;;;;;32.48;46.64;100048.25;10495769;28;20040;-70
2023/08/12 11:22:50;;;;;;;13.32;3.90;;;;;;;32.06;47.16;99986.56;10495460;28;20389;-70
2023/08/12 11:27:53;;;;;;;10.65;3.35;;;;;;;32.05;47.52;99968.47;10495380;28;20068;-72
2023/08/12 11:32:55;;;;;;;15.13;4.22;;;;;;;32.42;47.89;100010.22;10496401;28;20087;-71
2023/08/12 11:37:57;;;;;;;13.73;3.63;;;;;;;32.49;49.23;100022.41;10495788;28;20032;-71
2023/08/12 11:42:58;;;;;;;12.30;3.53;;;;;;;32.64;48.39;100032.09;10495085;28;20040;-71
2023/08/12 11:47:59;;;;;;;17.20;4.15;;;;;;;32.40;48.44;99960.25;10494661;28;20465;-71
2023/08/12 11:53:00;;;;;;;14.35;3.78;;;;;;;32.99;48.55;100017.53;10495959;28;20047;-71
2023/08/12 11:58:01;;;;;;;7.88;3.55;;;;;;;33.22;48.26;100002.44;10495002;28;20043;-71
2023/08/12 12:03:03;;;;;;;44.08;5.25;;;;;;;33.95;47.91;99999.53;10494708;28;20169;-71
2023/08/12 12:08:05;;;;;;;12.63;3.23;;;;;;;34.25;46.38;99959.03;10495130;28;20094;-70
2023/08/12 12:13:06;;;;;;;20.67;3.72;;;;;;;35.41;43.77;100008.88;10495674;28;20056;-71
2023/08/12 12:18:13;;;;;;;7.97;3.33;;;;;;;36.13;41.74;100033.38;10494858;28;20416;-70
2023/08/12 12:23:15;;;;;;;55.65;5.35;;;;;;;36.45;41.37;99995.63;10494813;28;20044;-71
2023/08/12 12:28:16;;;;;;;14.10;3.42;;;;;;;36.79;40.88;100011.63;10494574;28;20178;-70
2023/08/12 12:33:17;;;;;;;16.63;3.50;;;;;;;36.73;40.02;100013.03;10500183;28;20131;-72
2023/08/12 12:38:18;;;;;;;11.27;3.40;;;;;;;36.65;39.49;99997.41;10501629;28;20040;-71
2023/08/12 12:43:18;;;;;;;14.70;3.73;;;;;;;36.72;39.21;99975.47;10501184;28;20131;-71
2023/08/12 12:48:19;;;;;;;15.32;3.13;;;;;;;36.94;38.40;99998.19;10501575;28;20448;-70
2023/08/12 12:53:20;;;;;;;18.80;3.53;;;;;;;36.90;38.47;99989.78;10501344;28;20421;-71
2023/08/12 12:58:23;;;;;;;11.27;3.43;;;;;;;37.23;38.43;99992.28;10500585;28;20043;-72
2023/08/12 13:03:23;;;;;;;13.43;3.50;;;;;;;37.55;39.21;99985.97;10501535;28;20044;-72
2023/08/12 13:08:25;;;;;;;15.50;5.03;;;;;;;37.39;38.10;99983.16;10500766;28;20044;-71
2023/08/12 13:13:26;;;;;;;12.23;3.80;;;;;;;36.81;39.01;99971.75;10501055;28;20118;-71
2023/08/12 13:18:27;;;;;;;11.17;3.50;;;;;;;36.49;40.26;99990.97;10501637;28;20044;-72
2023/08/12 13:23:28;;;;;;;13.07;3.27;;;;;;;36.26;40.15;99993.50;10500689;28;20041;-72
2023/08/12 13:28:29;;;;;;;20.92;3.67;;;;;;;36.27;40.45;99990.34;10500114;28;20043;-72
2023/08/12 13:33:30;;;;;;;;;;;;;;;36.35;39.92;99991.38;10500333;28;20594;-71
2023/08/12 13:38:31;;;;;;;12.47;3.50;;;;;;;35.79;40.61;99977.41;10499254;28;19916;-72
2023/08/12 13:43:31;;;;;;;21.00;3.78;;;;;;;35.55;40.89;99953.34;10499954;28;20044;-71
2023/08/12 13:48:32;;;;;;;15.65;3.88;;;;;;;34.99;41.32;99877.31;10499200;28;20121;-71
2023/08/12 13:53:33;;;;;;;13.13;3.00;;;;;;;34.86;41.93;99891.47;10498951;28;20052;-71
2023/08/12 13:58:34;;;;;;;18.25;3.67;;;;;;;35.13;42.04;99973.66;10498849;28;20040;-72
2023/08/12 14:03:35;;;;;;;9.05;2.88;;;;;;;34.62;42.22;99895.78;10498176;28;20079;-72
2023/08/12 14:08:36;;;;;;;9.90;3.70;;;;;;;34.93;42.37;99963.44;10498469;28;20044;-71
2023/08/12 14:13:36;;;;;;;17.70;3.58;;;;;;;34.71;42.13;99935.09;10496011;28;20117;-72
2023/08/12 14:18:37;;;;;;;11.70;3.25;;;;;;;34.40;42.44;99883.13;10498603;28;20049;-72
2023/08/12 14:23:38;;;;;;;18.38;4.50;;;;;;;34.25;42.75;99869.97;10498002;28;20047;-72
2023/08/12 14:28:38;;;;;;;24.85;3.97;;;;;;;34.53;42.96;99934.44;10498037;28;20044;-72
2023/08/12 14:33:39;;;;;;;11.43;3.55;;;;;;;34.38;42.83;99937.03;10496819;28;20097;-72
2023/08/12 14:38:40;;;;;;;13.70;3.90;;;;;;;34.44;42.97;99971.50;10496601;28;20041;-72
2023/08/12 14:43:41;;;;;;;18.42;4.00;;;;;;;34.37;42.87;99965.72;10496587;28;20257;-74
2023/08/12 14:48:41;;;;;;;16.98;3.63;;;;;;;34.26;42.84;99982.69;10497518;28;20036;-72
2023/08/12 14:53:42;;;;;;;14.40;3.40;;;;;;;33.75;43.23;99909.41;10495449;28;20131;-72
2023/08/12 14:58:43;;;;;;;17.25;3.88;;;;;;;33.57;43.53;99897.69;10495912;28;20033;-72
2023/08/12 15:03:43;;;;;;;13.43;4.32;;;;;;;33.94;43.88;99978.66;10495972;28;20040;-72
2023/08/12 15:08:44;;;;;;;64.82;6.25;;;;;;;33.26;46.07;99901.53;10496643;28;20050;-72
2023/08/12 15:13:45;;;;;;;23.50;4.25;;;;;;;33.53;46.39;99987.59;10494354;28;20063;-72
2023/08/12 15:18:47;;;;;;;47.28;6.22;;;;;;;33.36;47.03;99991.22;10495431;28;20567;-72
2023/08/12 15:23:48;;;;;;;28.10;4.70;;;;;;;32.66;47.63;99899.75;10495886;28;20037;-72
2023/08/12 15:28:49;;;;;;;37.40;5.63;;;;;;;33.03;48.18;99996.50;10496175;28;20059;-72
2023/08/12 15:33:49;;;;;;;43.95;5.32;;;;;;;32.86;47.96;99991.81;10496193;28;20059;-72
2023/08/12 15:38:50;;;;;;;85.90;8.35;;;;;;;32.64;49.87;100001.84;10495665;28;20032;-72
2023/08/12 15:43:51;;;;;;;36.80;5.65;;;;;;;32.38;50.61;99979.03;10496064;28;20040;-72
2023/08/12 15:48:52;;;;;;;50.42;5.85;;;;;;;32.26;51.55;99999.69;10495100;28;20043;-72
2023/08/12 15:53:52;;;;;;;18.55;5.20;;;;;;;32.05;50.23;99979.47;10495061;28;20037;-72
2023/08/12 15:58:53;;;;;;;79.57;8.15;;;;;;;31.72;51.77;99949.63;10494681;28;20090;-72
2023/08/12 16:03:54;;;;;;;59.25;7.43;;;;;;;31.55;52.45;99955.88;10495755;28;20457;-72
2023/08/12 16:08:54;;;;;;;34.35;6.22;;;;;;;31.66;53.62;100005.81;10503200;28;20047;-76
2023/08/12 16:13:55;;;;;;;39.88;6.15;;;;;;;31.40;54.38;100002.16;10502942;28;20045;-72
2023/08/12 16:18:56;;;;;;;65.65;8.23;;;;;;;30.85;54.93;99931.97;10502689;28;20085;-72
2023/08/12 16:23:56;;;;;;;78.57;9.18;;;;;;;31.23;55.26;100013.81;10503095;28;20549;-72
2023/08/12 16:28:57;;;;;;;87.20;10.73;;;;;;;31.11;56.03;100028.09;10502840;28;20483;-72
2023/08/12 16:33:58;;;;;;;75.38;8.88;;;;;;;30.98;56.38;100029.81;10501754;28;20048;-72
2023/08/12 16:38:58;;;;;;;44.97;7.35;;;;;;;30.82;55.89;100021.16;10501957;28;20043;-72
2023/08/12 16:43:59;;;;;;;22.00;4.97;;;;;;;30.83;55.41;100033.72;10501143;28;20276;-72
2023/08/12 16:49:00;;;;;;;46.85;6.28;;;;;;;30.91;55.69;100045.91;10501591;28;20036;-72
2023/08/12 16:54:01;;;;;;;30.83;5.63;;;;;;;30.78;56.59;100054.94;10502035;28;20040;-71
2023/08/12 16:59:02;;;;;;;23.02;6.20;;;;;;;30.57;56.22;100029.91;10501240;28;20044;-72
2023/08/12 17:04:05;;;;;;;26.10;6.18;;;;;;;30.60;56.35;100057.53;10500463;28;20500;-72
2023/08/12 17:09:06;;;;;;;16.75;5.30;;;;;;;30.47;55.90;100059.19;10500517;28;20048;-72
2023/08/12 17:14:09;;;;;;;12.68;4.97;;;;;;;30.58;55.77;100076.22;10500397;28;20079;-72
2023/08/12 17:19:09;;;;;;;;;;;;;;;30.75;55.12;100086.53;10500283;28;20064;-72
2023/08/12 17:24:10;;;;;;;19.17;5.40;;;;;;;30.02;56.45;100006.16;10500260;28;19964;-72
2023/08/12 17:29:11;;;;;;;23.38;6.55;;;;;;;30.29;56.81;100071.09;10499422;28;20040;-72
2023/08/12 17:34:12;;;;;;;13.35;5.68;;;;;;;30.32;57.30;100091.59;10500324;28;20040;-70
2023/08/12 17:39:13;;;;;;;24.52;6.25;;;;;;;30.20;57.87;100087.44;10499982;28;20036;-70
2023/08/12 17:44:14;;;;;;;18.13;6.53;;;;;;;30.19;57.83;100095.94;10500027;28;20412;-73
2023/08/12 17:49:14;;;;;;;26.17;6.30;;;;;;;29.85;58.40;100058.78;10499741;28;20044;-72
2023/08/12 17:54:16;;;;;;;20.20;7.78;;;;;;;30.10;58.61;100097.78;10498162;28;20609;-74
2023/08/12 17:59:17;;;;;;;20.30;7.45;;;;;;;30.01;58.75;100084.78;10499157;28;20045;-70
2023/08/12 18:04:17;;;;;;;23.90;7.53;;;;;;;29.62;58.94;100043.38;10498550;28;20420;-70
2023/08/12 18:09:18;;;;;;;22.80;7.93;;;;;;;29.88;59.87;100096.53;10498295;28;20052;-70
2023/08/12 18:14:21;;;;;;;28.67;8.43;;;;;;;29.30;60.35;100032.13;10497601;28;20127;-70
2023/08/12 18:19:22;;;;;;;29.30;9.18;;;;;;;29.39;60.71;100050.59;10497809;28;20044;-70
2023/08/12 18:24:22;;;;;;;29.05;8.90;;;;;;;29.67;60.97;100106.22;10497809;28;20119;-70
2023/08/12 18:29:24;;;;;;;20.92;8.68;;;;;;;29.61;61.30;100112.88;10497856;28;20468;-68
2023/08/12 18:34:24;;;;;;;17.65;9.20;;;;;;;29.67;61.28;100104.31;10497435;28;20074;-73
2023/08/12 18:39:26;;;;;;;26.77;9.68;;;;;;;29.66;61.74;100110.09;10498118;28;20086;-74
2023/08/12 18:44:27;;;;;;;32.88;9.75;;;;;;;29.61;62.07;100118.34;10497122;28;20048;-70
2023/08/12 18:49:27;;;;;;;22.70;10.20;;;;;;;29.52;62.70;100105.34;10496249;28;20036;-70
2023/08/12 18:54:28;;;;;;;45.00;11.88;;;;;;;29.37;63.54;100099.34;10496003;28;20048;-70
2023/08/12 18:59:29;;;;;;;26.23;10.18;;;;;;;29.15;64.07;100086.31;10496552;28;20067;-70
2023/08/12 19:04:30;;;;;;;37.85;10.48;;;;;;;29.09;64.35;100097.31;10496726;28;20036;-70
2023/08/12 19:09:30;;;;;;;21.83;10.55;;;;;;;29.08;64.42;100117.56;10496031;28;20048;-71
2023/08/12 19:14:31;;;;;;;26.40;10.60;;;;;;;28.49;64.86;100038.88;10496238;28;20487;-71
2023/08/12 19:19:32;;;;;;;40.50;11.63;;;;;;;28.90;65.18;100129.31;10496451;28;20044;-71
2023/08/12 19:24:33;;;;;;;26.27;9.98;;;;;;;28.64;65.51;100088.66;10495867;28;20040;-71
2023/08/12 19:29:33;;;;;;;24.30;10.25;;;;;;;28.73;65.91;100121.59;10494513;28;20040;-71
2023/08/12 19:34:34;;;;;;;19.98;10.15;;;;;;;28.55;66.45;100133.34;10495618;28;20170;-72
2023/08/12 19:39:35;;;;;;;25.92;10.70;;;;;;;28.39;67.06;100135.38;10496935;28;20044;-72
2023/08/12 19:44:36;;;;;;;38.85;10.88;;;;;;;28.07;67.62;100122.41;10504931;28;20090;-72
2023/08/12 19:49:36;;;;;;;26.77;9.95;;;;;;;27.79;67.97;100096.75;10503885;28;20093;-72
2023/08/12 19:54:37;;;;;;;41.78;10.35;;;;;;;28.05;67.94;100146.44;10503021;28;20040;-72
2023/08/12 19:59:37;;;;;;;37.70;11.48;;;;;;;27.84;68.51;100138.44;10504092;28;20048;-72
2023/08/12 20:04:38;;;;;;;30.13;9.65;;;;;;;27.85;69.06;100158.38;10503098;28;20039;-72
2023/08/12 20:09:39;;;;;;;31.35;10.90;;;;;;;27.62;69.67;100141.63;10503679;28;20056;-72
2023/08/12 20:14:40;;;;;;;27.83;10.95;;;;;;;27.56;70.15;100145.50;10503012;28;20040;-72
2023/08/12 20:19:41;;;;;;;23.23;10.02;;;;;;;27.62;70.10;100158.00;10502915;28;20040;-72
2023/08/12 20:24:42;;;;;;;25.20;9.55;;;;;;;27.62;70.13;100149.00;10502011;28;20048;-72
2023/08/12 20:29:42;;;;;;;21.17;10.07;;;;;;;27.60;69.85;100152.00;10502119;28;20158;-71
2023/08/12 20:34:43;;;;;;;21.63;10.32;;;;;;;27.41;70.59;100129.28;10502124;28;20093;-72
2023/08/12 20:39:44;;;;;;;16.75;9.07;;;;;;;27.34;71.22;100143.22;10502088;28;20040;-72
2023/08/12 20:44:44;;;;;;;21.50;10.55;;;;;;;27.42;71.19;100160.91;10502357;28;20053;-72
2023/08/12 20:49:45;;;;;;;35.25;10.65;;;;;;;27.36;71.74;100154.66;10501719;28;20178;-71
2023/08/12 20:54:47;;;;;;;20.50;10.02;;;;;;;27.22;72.54;100162.69;10500178;28;20411;-71
2023/08/12 20:59:48;;;;;;;34.93;11.03;;;;;;;27.16;72.68;100166.53;10500876;28;20036;-72
2023/08/12 21:04:50;;;;;;;21.38;9.70;;;;;;;27.10;73.07;100156.72;10501116;28;20093;-72
2023/08/12 21:09:50;;;;;;;19.70;9.35;;;;;;;27.13;72.87;100167.06;10500836;28;20075;-71
2023/08/12 21:14:51;;;;;;;19.27;8.95;;;;;;;27.19;73.09;100165.13;10500060;28;20048;-71
2023/08/12 21:19:52;;;;;;;23.08;9.20;;;;;;;26.93;73.67;100142.66;10500466;28;20041;-72
2023/08/12 21:24:53;;;;;;;15.02;9.02;;;;;;;26.49;73.88;100076.13;10501049;28;20072;-71
2023/08/12 21:29:53;;;;;;;19.25;9.40;;;;;;;27.01;74.10;100164.69;10500881;28;20499;-71
2023/08/12 21:34:54;;;;;;;15.00;8.77;;;;;;;26.97;74.73;100162.81;10499893;28;20236;-71
2023/08/12 21:39:55;;;;;;;20.40;8.73;;;;;;;26.99;74.77;100155.16;10499694;28;20036;-71
2023/08/12 21:44:55;;;;;;;30.58;9.82;;;;;;;26.56;75.21;100084.81;10499056;28;20047;-72
2023/08/12 21:49:56;;;;;;;19.85;9.75;;;;;;;26.56;75.51;100086.72;10498654;28;20041;-75
2023/08/12 21:54:57;;;;;;;20.98;9.02;;;;;;;26.68;75.70;100105.44;10499120;28;20075;-72
2023/08/12 21:59:57;;;;;;;16.50;8.35;;;;;;;26.96;76.11;100156.53;10498369;28;20048;-72
2023/08/12 22:04:58;;;;;;;14.55;8.60;;;;;;;26.88;75.55;100142.69;10498511;28;20032;-71
2023/08/12 22:09:59;;;;;;;18.20;9.27;;;;;;;26.70;76.46;100144.13;10498308;28;20061;-72
2023/08/12 22:15:00;;;;;;;20.85;10.38;;;;;;;26.70;76.68;100150.41;10514029;28;20388;-72
2023/08/12 22:20:04;;;;;;;17.65;11.80;;;;;;;26.72;76.88;100150.13;10497367;28;20037;-72
2023/08/12 22:25:05;;;;;;;21.15;10.27;;;;;;;26.55;77.51;100145.03;10497945;28;20052;-71
2023/08/12 22:30:08;;;;;;;19.52;9.55;;;;;;;26.06;78.04;100094.78;10497106;28;20028;-72
2023/08/12 22:35:08;;;;;;;24.45;9.88;;;;;;;26.33;77.76;100148.91;10497239;28;20048;-72
2023/08/12 22:40:09;;;;;;;18.73;9.15;;;;;;;26.35;79.04;100173.09;10497234;28;20044;-71
2023/08/12 22:45:10;;;;;;;18.25;9.75;;;;;;;26.31;79.40;100175.56;10497181;28;20093;-72
2023/08/12 22:50:12;;;;;;;23.10;9.50;;;;;;;26.21;80.46;100186.50;10496885;28;20047;-72
2023/08/12 22:55:12;;;;;;;16.20;9.27;;;;;;;25.95;80.48;100144.91;10496043;28;20040;-72